Terminal Aerodrome Forecast
Issued by NWS Omaha/Valley, NE

Home | Current Version | Previous Version | Text Only | Print | Product List | Glossary On
Versions: 1 2 3 4 5 6 7 8 9 10 11 12 13 14 15 16 17 18 19 20 21 22 23 24 25 26 27 28 29 30 31 32 33 34 35 36 37 38 39 40
000
FTUS43 KOAX 220206 AAA
TAFOMA
TAF AMD
KOMA 220206Z 2202/2224 VRB06KT P6SM BKN100
      TEMPO 2202/2204 2SM TSRA OVC020CB
     FM220600 31006KT P6SM BKN050
     FM220800 33006KT P6SM SCT200=

USA.gov is the U.S. government's official web portal to all federal, state and local government web resources and services.